sensor_id;sensor_type;location;lat;lon;timestamp;P1;durP1;ratioP1;P2;durP2;ratioP2
71383;SDS011;67558;52.166;5.004;2023-07-29T00:00:39;52.80;;;51.35;;
71383;SDS011;67558;52.166;5.004;2023-07-29T00:03:05;57.55;;;55.83;;
71383;SDS011;67558;52.166;5.004;2023-07-29T00:05:30;56.30;;;54.60;;
71383;SDS011;67558;52.166;5.004;2023-07-29T00:07:56;56.67;;;55.03;;
71383;SDS011;67558;52.166;5.004;2023-07-29T00:10:21;59.22;;;57.53;;
71383;SDS011;67558;52.166;5.004;2023-07-29T00:12:46;56.15;;;54.53;;
71383;SDS011;67558;52.166;5.004;2023-07-29T00:15:12;54.00;;;52.50;;
71383;SDS011;67558;52.166;5.004;2023-07-29T00:17:38;54.33;;;52.72;;
71383;SDS011;67558;52.166;5.004;2023-07-29T00:20:04;60.17;;;58.47;;
71383;SDS011;67558;52.166;5.004;2023-07-29T00:22:31;50.80;;;48.58;;
71383;SDS011;67558;52.166;5.004;2023-07-29T00:24:56;63.78;;;61.72;;
71383;SDS011;67558;52.166;5.004;2023-07-29T00:27:22;53.85;;;52.15;;
71383;SDS011;67558;52.166;5.004;2023-07-29T00:29:48;54.67;;;53.05;;
71383;SDS011;67558;52.166;5.004;2023-07-29T00:32:13;52.13;;;50.60;;
71383;SDS011;67558;52.166;5.004;2023-07-29T00:34:39;52.47;;;51.05;;
71383;SDS011;67558;52.166;5.004;2023-07-29T00:37:04;59.10;;;57.30;;
71383;SDS011;67558;52.166;5.004;2023-07-29T00:39:31;51.78;;;50.30;;
71383;SDS011;67558;52.166;5.004;2023-07-29T00:41:56;54.78;;;53.13;;
71383;SDS011;67558;52.166;5.004;2023-07-29T00:44:28;32.90;;;31.60;;
71383;SDS011;67558;52.166;5.004;2023-07-29T00:46:54;35.10;;;33.90;;
71383;SDS011;67558;52.166;5.004;2023-07-29T00:49:20;36.15;;;34.88;;
71383;SDS011;67558;52.166;5.004;2023-07-29T00:51:47;36.72;;;35.65;;
71383;SDS011;67558;52.166;5.004;2023-07-29T00:54:13;35.70;;;34.35;;
71383;SDS011;67558;52.166;5.004;2023-07-29T00:56:40;36.13;;;34.92;;
71383;SDS011;67558;52.166;5.004;2023-07-29T00:59:06;33.05;;;31.92;;
71383;SDS011;67558;52.166;5.004;2023-07-29T01:01:31;32.42;;;31.33;;
71383;SDS011;67558;52.166;5.004;2023-07-29T01:03:58;36.78;;;35.67;;
71383;SDS011;67558;52.166;5.004;2023-07-29T01:06:29;33.83;;;32.78;;
71383;SDS011;67558;52.166;5.004;2023-07-29T01:09:26;33.92;;;32.80;;
71383;SDS011;67558;52.166;5.004;2023-07-29T01:12:08;31.33;;;30.33;;
71383;SDS011;67558;52.166;5.004;2023-07-29T01:15:21;37.10;;;35.83;;
71383;SDS011;67558;52.166;5.004;2023-07-29T01:17:52;35.58;;;34.35;;
71383;SDS011;67558;52.166;5.004;2023-07-29T01:20:20;35.72;;;34.63;;
71383;SDS011;67558;52.166;5.004;2023-07-29T01:22:49;32.80;;;31.80;;
71383;SDS011;67558;52.166;5.004;2023-07-29T01:25:15;34.65;;;33.50;;
71383;SDS011;67558;52.166;5.004;2023-07-29T01:27:43;39.03;;;37.75;;
71383;SDS011;67558;52.166;5.004;2023-07-29T01:30:11;33.28;;;31.83;;
71383;SDS011;67558;52.166;5.004;2023-07-29T01:32:41;35.15;;;33.83;;
71383;SDS011;67558;52.166;5.004;2023-07-29T01:38:18;34.10;;;32.70;;
71383;SDS011;67558;52.166;5.004;2023-07-29T01:40:46;37.03;;;35.15;;
71383;SDS011;67558;52.166;5.004;2023-07-29T01:43:14;33.55;;;32.33;;
71383;SDS011;67558;52.166;5.004;2023-07-29T01:45:40;31.17;;;29.98;;
71383;SDS011;67558;52.166;5.004;2023-07-29T01:48:07;33.25;;;31.90;;
71383;SDS011;67558;52.166;5.004;2023-07-29T01:50:34;31.77;;;30.35;;
71383;SDS011;67558;52.166;5.004;2023-07-29T01:52:59;30.95;;;29.70;;
71383;SDS011;67558;52.166;5.004;2023-07-29T01:55:25;33.42;;;32.25;;
71383;SDS011;67558;52.166;5.004;2023-07-29T01:57:51;36.20;;;34.90;;
71383;SDS011;67558;52.166;5.004;2023-07-29T02:00:18;31.52;;;30.17;;
71383;SDS011;67558;52.166;5.004;2023-07-29T02:02:44;32.83;;;31.40;;
71383;SDS011;67558;52.166;5.004;2023-07-29T02:05:10;34.42;;;33.10;;
71383;SDS011;67558;52.166;5.004;2023-07-29T02:07:36;33.88;;;32.53;;
71383;SDS011;67558;52.166;5.004;2023-07-29T02:10:03;31.42;;;30.33;;
71383;SDS011;67558;52.166;5.004;2023-07-29T02:12:28;37.75;;;36.25;;
71383;SDS011;67558;52.166;5.004;2023-07-29T02:14:54;35.25;;;33.67;;
71383;SDS011;67558;52.166;5.004;2023-07-29T02:17:20;32.13;;;30.30;;
71383;SDS011;67558;52.166;5.004;2023-07-29T02:19:46;33.42;;;32.03;;
71383;SDS011;67558;52.166;5.004;2023-07-29T02:22:13;32.50;;;31.30;;
71383;SDS011;67558;52.166;5.004;2023-07-29T02:24:40;32.95;;;31.58;;
71383;SDS011;67558;52.166;5.004;2023-07-29T02:27:05;37.33;;;35.78;;
71383;SDS011;67558;52.166;5.004;2023-07-29T02:29:31;30.75;;;29.45;;
71383;SDS011;67558;52.166;5.004;2023-07-29T02:32:03;33.75;;;32.10;;
71383;SDS011;67558;52.166;5.004;2023-07-29T02:34:30;28.73;;;27.48;;
71383;SDS011;67558;52.166;5.004;2023-07-29T02:36:55;33.22;;;31.98;;
71383;SDS011;67558;52.166;5.004;2023-07-29T02:39:21;31.70;;;30.58;;
71383;SDS011;67558;52.166;5.004;2023-07-29T02:41:49;38.50;;;37.08;;
71383;SDS011;67558;52.166;5.004;2023-07-29T02:44:14;31.83;;;30.50;;
71383;SDS011;67558;52.166;5.004;2023-07-29T02:46:41;33.83;;;32.53;;
71383;SDS011;67558;52.166;5.004;2023-07-29T02:49:06;31.70;;;30.48;;
71383;SDS011;67558;52.166;5.004;2023-07-29T02:51:32;33.42;;;32.33;;
71383;SDS011;67558;52.166;5.004;2023-07-29T02:53:58;34.20;;;32.75;;
71383;SDS011;67558;52.166;5.004;2023-07-29T02:56:24;39.25;;;37.83;;
71383;SDS011;67558;52.166;5.004;2023-07-29T02:58:50;36.80;;;35.40;;
71383;SDS011;67558;52.166;5.004;2023-07-29T03:01:17;32.42;;;31.02;;
71383;SDS011;67558;52.166;5.004;2023-07-29T03:03:43;34.58;;;33.35;;
71383;SDS011;67558;52.166;5.004;2023-07-29T03:06:10;31.23;;;30.13;;
71383;SDS011;67558;52.166;5.004;2023-07-29T03:08:36;34.15;;;32.90;;
71383;SDS011;67558;52.166;5.004;2023-07-29T03:11:06;29.85;;;28.85;;
71383;SDS011;67558;52.166;5.004;2023-07-29T03:13:33;29.75;;;28.67;;
71383;SDS011;67558;52.166;5.004;2023-07-29T03:16:06;30.40;;;29.10;;
71383;SDS011;67558;52.166;5.004;2023-07-29T03:18:33;31.20;;;30.05;;
71383;SDS011;67558;52.166;5.004;2023-07-29T03:20:58;30.13;;;29.02;;
71383;SDS011;67558;52.166;5.004;2023-07-29T03:23:24;28.45;;;27.35;;
71383;SDS011;67558;52.166;5.004;2023-07-29T03:25:50;32.55;;;31.25;;
71383;SDS011;67558;52.166;5.004;2023-07-29T03:28:18;36.20;;;34.42;;
71383;SDS011;67558;52.166;5.004;2023-07-29T03:30:44;30.83;;;29.52;;
71383;SDS011;67558;52.166;5.004;2023-07-29T03:33:09;27.15;;;26.25;;
71383;SDS011;67558;52.166;5.004;2023-07-29T03:35:35;32.30;;;31.05;;
71383;SDS011;67558;52.166;5.004;2023-07-29T03:38:01;31.30;;;30.25;;
71383;SDS011;67558;52.166;5.004;2023-07-29T03:40:27;33.10;;;31.95;;
71383;SDS011;67558;52.166;5.004;2023-07-29T03:42:53;33.33;;;32.00;;
71383;SDS011;67558;52.166;5.004;2023-07-29T03:45:19;26.80;;;25.88;;
71383;SDS011;67558;52.166;5.004;2023-07-29T03:47:45;28.38;;;27.45;;
71383;SDS011;67558;52.166;5.004;2023-07-29T03:50:11;29.20;;;28.20;;
71383;SDS011;67558;52.166;5.004;2023-07-29T03:52:37;28.45;;;27.45;;
71383;SDS011;67558;52.166;5.004;2023-07-29T03:55:04;30.73;;;29.60;;
71383;SDS011;67558;52.166;5.004;2023-07-29T03:57:29;29.88;;;28.67;;
71383;SDS011;67558;52.166;5.004;2023-07-29T03:59:55;35.60;;;34.30;;
71383;SDS011;67558;52.166;5.004;2023-07-29T04:02:21;31.52;;;30.33;;
71383;SDS011;67558;52.166;5.004;2023-07-29T04:04:47;36.60;;;35.30;;
71383;SDS011;67558;52.166;5.004;2023-07-29T04:07:13;32.20;;;31.08;;
71383;SDS011;67558;52.166;5.004;2023-07-29T04:09:39;28.65;;;27.58;;
71383;SDS011;67558;52.166;5.004;2023-07-29T04:12:06;29.23;;;28.00;;
71383;SDS011;67558;52.166;5.004;2023-07-29T04:14:31;31.60;;;30.40;;
71383;SDS011;67558;52.166;5.004;2023-07-29T04:16:57;31.27;;;30.15;;
71383;SDS011;67558;52.166;5.004;2023-07-29T04:19:23;30.48;;;29.38;;
71383;SDS011;67558;52.166;5.004;2023-07-29T04:21:49;28.95;;;27.75;;
71383;SDS011;67558;52.166;5.004;2023-07-29T04:24:16;31.13;;;30.10;;
71383;SDS011;67558;52.166;5.004;2023-07-29T04:26:41;28.77;;;27.58;;
71383;SDS011;67558;52.166;5.004;2023-07-29T04:29:07;34.25;;;33.13;;
71383;SDS011;67558;52.166;5.004;2023-07-29T04:31:33;32.20;;;31.08;;
71383;SDS011;67558;52.166;5.004;2023-07-29T04:33:59;34.20;;;32.88;;
71383;SDS011;67558;52.166;5.004;2023-07-29T04:36:26;30.45;;;29.30;;
71383;SDS011;67558;52.166;5.004;2023-07-29T04:38:52;32.13;;;30.92;;
71383;SDS011;67558;52.166;5.004;2023-07-29T04:41:18;28.98;;;27.83;;
71383;SDS011;67558;52.166;5.004;2023-07-29T04:43:44;31.25;;;30.05;;
71383;SDS011;67558;52.166;5.004;2023-07-29T04:46:10;29.58;;;28.58;;
71383;SDS011;67558;52.166;5.004;2023-07-29T04:48:36;29.25;;;28.23;;
71383;SDS011;67558;52.166;5.004;2023-07-29T04:51:02;31.58;;;30.45;;
71383;SDS011;67558;52.166;5.004;2023-07-29T04:53:28;27.77;;;26.67;;
71383;SDS011;67558;52.166;5.004;2023-07-29T04:55:54;30.42;;;29.33;;
71383;SDS011;67558;52.166;5.004;2023-07-29T04:58:19;29.30;;;28.20;;
71383;SDS011;67558;52.166;5.004;2023-07-29T05:00:48;29.67;;;28.67;;
71383;SDS011;67558;52.166;5.004;2023-07-29T05:03:14;31.98;;;30.75;;
71383;SDS011;67558;52.166;5.004;2023-07-29T05:05:40;32.63;;;31.48;;
71383;SDS011;67558;52.166;5.004;2023-07-29T05:08:06;32.85;;;31.63;;
71383;SDS011;67558;52.166;5.004;2023-07-29T05:10:32;29.88;;;28.60;;
71383;SDS011;67558;52.166;5.004;2023-07-29T05:12:59;32.53;;;31.25;;
71383;SDS011;67558;52.166;5.004;2023-07-29T05:15:25;31.60;;;30.50;;
71383;SDS011;67558;52.166;5.004;2023-07-29T05:17:51;32.70;;;31.50;;
71383;SDS011;67558;52.166;5.004;2023-07-29T05:20:17;30.23;;;29.02;;
71383;SDS011;67558;52.166;5.004;2023-07-29T05:22:43;31.02;;;29.83;;
71383;SDS011;67558;52.166;5.004;2023-07-29T05:25:09;30.30;;;29.08;;
71383;SDS011;67558;52.166;5.004;2023-07-29T05:27:34;31.48;;;30.38;;
71383;SDS011;67558;52.166;5.004;2023-07-29T05:30:00;37.20;;;35.90;;
71383;SDS011;67558;52.166;5.004;2023-07-29T05:32:26;31.42;;;30.25;;
71383;SDS011;67558;52.166;5.004;2023-07-29T05:34:52;34.00;;;32.60;;
71383;SDS011;67558;52.166;5.004;2023-07-29T05:37:18;31.13;;;29.95;;
71383;SDS011;67558;52.166;5.004;2023-07-29T05:39:44;31.25;;;30.00;;
71383;SDS011;67558;52.166;5.004;2023-07-29T05:42:10;32.95;;;31.77;;
71383;SDS011;67558;52.166;5.004;2023-07-29T05:44:36;34.63;;;33.22;;
71383;SDS011;67558;52.166;5.004;2023-07-29T05:47:02;33.97;;;32.58;;
71383;SDS011;67558;52.166;5.004;2023-07-29T05:49:28;32.80;;;31.70;;
71383;SDS011;67558;52.166;5.004;2023-07-29T05:51:54;32.72;;;31.35;;
71383;SDS011;67558;52.166;5.004;2023-07-29T05:54:19;35.15;;;33.65;;
71383;SDS011;67558;52.166;5.004;2023-07-29T05:56:45;31.10;;;29.95;;
71383;SDS011;67558;52.166;5.004;2023-07-29T05:59:11;35.03;;;33.63;;
71383;SDS011;67558;52.166;5.004;2023-07-29T06:01:37;33.80;;;32.58;;
71383;SDS011;67558;52.166;5.004;2023-07-29T06:04:03;33.28;;;31.98;;
71383;SDS011;67558;52.166;5.004;2023-07-29T06:06:29;33.05;;;31.75;;
71383;SDS011;67558;52.166;5.004;2023-07-29T06:08:54;32.63;;;31.35;;
71383;SDS011;67558;52.166;5.004;2023-07-29T06:11:20;40.65;;;38.97;;
71383;SDS011;67558;52.166;5.004;2023-07-29T06:13:47;34.58;;;33.03;;
71383;SDS011;67558;52.166;5.004;2023-07-29T06:16:12;33.35;;;32.05;;
71383;SDS011;67558;52.166;5.004;2023-07-29T06:18:38;33.22;;;31.75;;
71383;SDS011;67558;52.166;5.004;2023-07-29T06:21:04;31.67;;;30.05;;
71383;SDS011;67558;52.166;5.004;2023-07-29T06:23:34;32.38;;;31.17;;
71383;SDS011;67558;52.166;5.004;2023-07-29T06:25:59;36.20;;;34.60;;
71383;SDS011;67558;52.166;5.004;2023-07-29T06:28:26;40.38;;;38.67;;
71383;SDS011;67558;52.166;5.004;2023-07-29T06:30:52;34.70;;;33.00;;
71383;SDS011;67558;52.166;5.004;2023-07-29T06:33:18;34.40;;;33.00;;
71383;SDS011;67558;52.166;5.004;2023-07-29T06:35:44;35.63;;;34.10;;
71383;SDS011;67558;52.166;5.004;2023-07-29T06:38:09;34.00;;;32.58;;
71383;SDS011;67558;52.166;5.004;2023-07-29T06:40:35;35.92;;;34.40;;
71383;SDS011;67558;52.166;5.004;2023-07-29T06:43:01;36.15;;;34.55;;
71383;SDS011;67558;52.166;5.004;2023-07-29T06:45:27;35.17;;;33.53;;
71383;SDS011;67558;52.166;5.004;2023-07-29T06:47:53;33.85;;;32.40;;
71383;SDS011;67558;52.166;5.004;2023-07-29T06:50:19;32.28;;;30.50;;
71383;SDS011;67558;52.166;5.004;2023-07-29T06:52:45;35.03;;;33.53;;
71383;SDS011;67558;52.166;5.004;2023-07-29T06:55:11;36.05;;;34.55;;
71383;SDS011;67558;52.166;5.004;2023-07-29T06:57:37;33.40;;;32.08;;
71383;SDS011;67558;52.166;5.004;2023-07-29T07:00:04;40.17;;;38.58;;
71383;SDS011;67558;52.166;5.004;2023-07-29T07:02:29;32.97;;;31.77;;
71383;SDS011;67558;52.166;5.004;2023-07-29T07:04:55;34.65;;;33.15;;
71383;SDS011;67558;52.166;5.004;2023-07-29T07:07:21;34.53;;;33.17;;
71383;SDS011;67558;52.166;5.004;2023-07-29T07:09:48;36.88;;;35.45;;
71383;SDS011;67558;52.166;5.004;2023-07-29T07:12:14;36.08;;;34.72;;
71383;SDS011;67558;52.166;5.004;2023-07-29T07:14:39;34.00;;;32.50;;
71383;SDS011;67558;52.166;5.004;2023-07-29T07:17:05;38.65;;;36.85;;
71383;SDS011;67558;52.166;5.004;2023-07-29T07:19:31;34.75;;;33.40;;
71383;SDS011;67558;52.166;5.004;2023-07-29T07:21:57;36.92;;;35.45;;
71383;SDS011;67558;52.166;5.004;2023-07-29T07:24:23;36.15;;;34.75;;
71383;SDS011;67558;52.166;5.004;2023-07-29T07:26:49;37.47;;;35.45;;
71383;SDS011;67558;52.166;5.004;2023-07-29T07:29:15;36.25;;;34.92;;
71383;SDS011;67558;52.166;5.004;2023-07-29T07:31:43;35.60;;;34.17;;
71383;SDS011;67558;52.166;5.004;2023-07-29T07:34:20;40.30;;;38.53;;
71383;SDS011;67558;52.166;5.004;2023-07-29T07:36:46;42.60;;;40.88;;
71383;SDS011;67558;52.166;5.004;2023-07-29T07:39:12;38.30;;;36.40;;
71383;SDS011;67558;52.166;5.004;2023-07-29T07:41:39;40.92;;;39.28;;
71383;SDS011;67558;52.166;5.004;2023-07-29T07:44:05;35.95;;;34.55;;
71383;SDS011;67558;52.166;5.004;2023-07-29T07:46:30;37.22;;;35.83;;
71383;SDS011;67558;52.166;5.004;2023-07-29T07:48:56;37.47;;;36.03;;
71383;SDS011;67558;52.166;5.004;2023-07-29T07:51:22;41.30;;;39.55;;
71383;SDS011;67558;52.166;5.004;2023-07-29T07:53:48;37.92;;;36.13;;
71383;SDS011;67558;52.166;5.004;2023-07-29T07:56:14;38.47;;;37.03;;
71383;SDS011;67558;52.166;5.004;2023-07-29T07:58:40;39.10;;;37.63;;
71383;SDS011;67558;52.166;5.004;2023-07-29T08:01:07;38.03;;;36.78;;
71383;SDS011;67558;52.166;5.004;2023-07-29T08:03:34;38.03;;;36.72;;
71383;SDS011;67558;52.166;5.004;2023-07-29T08:06:00;37.97;;;36.58;;
71383;SDS011;67558;52.166;5.004;2023-07-29T08:08:27;41.58;;;40.22;;
71383;SDS011;67558;52.166;5.004;2023-07-29T08:10:53;37.30;;;36.08;;
71383;SDS011;67558;52.166;5.004;2023-07-29T08:13:19;41.58;;;40.25;;
71383;SDS011;67558;52.166;5.004;2023-07-29T08:15:49;42.25;;;40.95;;
71383;SDS011;67558;52.166;5.004;2023-07-29T08:18:15;39.95;;;38.65;;
71383;SDS011;67558;52.166;5.004;2023-07-29T08:20:50;43.13;;;41.60;;
71383;SDS011;67558;52.166;5.004;2023-07-29T08:23:34;39.95;;;38.55;;
71383;SDS011;67558;52.166;5.004;2023-07-29T08:26:01;39.47;;;38.17;;
71383;SDS011;67558;52.166;5.004;2023-07-29T08:28:35;35.53;;;34.33;;
71383;SDS011;67558;52.166;5.004;2023-07-29T08:31:02;42.85;;;41.55;;
71383;SDS011;67558;52.166;5.004;2023-07-29T08:33:28;41.47;;;40.17;;
71383;SDS011;67558;52.166;5.004;2023-07-29T08:35:53;41.58;;;40.17;;
71383;SDS011;67558;52.166;5.004;2023-07-29T08:38:20;41.92;;;40.40;;
71383;SDS011;67558;52.166;5.004;2023-07-29T08:43:12;38.10;;;36.80;;
71383;SDS011;67558;52.166;5.004;2023-07-29T08:45:41;41.47;;;40.08;;
71383;SDS011;67558;52.166;5.004;2023-07-29T08:48:10;41.75;;;40.50;;
71383;SDS011;67558;52.166;5.004;2023-07-29T08:50:37;40.65;;;39.40;;
71383;SDS011;67558;52.166;5.004;2023-07-29T08:53:06;40.42;;;39.03;;
71383;SDS011;67558;52.166;5.004;2023-07-29T08:55:32;41.33;;;39.78;;
71383;SDS011;67558;52.166;5.004;2023-07-29T08:57:59;43.47;;;42.08;;
71383;SDS011;67558;52.166;5.004;2023-07-29T09:00:26;44.85;;;43.40;;
71383;SDS011;67558;52.166;5.004;2023-07-29T09:02:52;46.38;;;44.97;;
71383;SDS011;67558;52.166;5.004;2023-07-29T09:05:20;38.40;;;37.20;;
71383;SDS011;67558;52.166;5.004;2023-07-29T09:07:48;47.15;;;45.55;;
71383;SDS011;67558;52.166;5.004;2023-07-29T09:10:19;43.88;;;42.17;;
71383;SDS011;67558;52.166;5.004;2023-07-29T09:12:53;45.60;;;44.00;;
71383;SDS011;67558;52.166;5.004;2023-07-29T09:15:28;47.30;;;45.72;;
71383;SDS011;67558;52.166;5.004;2023-07-29T09:17:57;42.45;;;40.95;;
71383;SDS011;67558;52.166;5.004;2023-07-29T09:20:27;43.17;;;41.78;;
71383;SDS011;67558;52.166;5.004;2023-07-29T09:22:58;50.45;;;49.05;;
71383;SDS011;67558;52.166;5.004;2023-07-29T09:25:28;40.40;;;39.03;;
71383;SDS011;67558;52.166;5.004;2023-07-29T09:28:01;47.97;;;46.38;;
71383;SDS011;67558;52.166;5.004;2023-07-29T09:30:32;40.08;;;38.78;;
71383;SDS011;67558;52.166;5.004;2023-07-29T09:32:58;42.65;;;41.15;;
71383;SDS011;67558;52.166;5.004;2023-07-29T09:35:29;41.03;;;39.38;;
71383;SDS011;67558;52.166;5.004;2023-07-29T09:37:57;41.53;;;40.10;;
71383;SDS011;67558;52.166;5.004;2023-07-29T09:40:23;44.97;;;43.63;;
71383;SDS011;67558;52.166;5.004;2023-07-29T09:42:50;41.75;;;40.30;;
71383;SDS011;67558;52.166;5.004;2023-07-29T09:45:23;40.60;;;39.30;;
71383;SDS011;67558;52.166;5.004;2023-07-29T09:47:52;45.28;;;43.78;;
71383;SDS011;67558;52.166;5.004;2023-07-29T09:50:18;41.08;;;39.67;;
71383;SDS011;67558;52.166;5.004;2023-07-29T09:52:48;42.55;;;41.13;;
71383;SDS011;67558;52.166;5.004;2023-07-29T09:55:19;41.50;;;40.15;;
71383;SDS011;67558;52.166;5.004;2023-07-29T09:57:46;45.10;;;43.70;;
71383;SDS011;67558;52.166;5.004;2023-07-29T10:00:12;44.20;;;42.70;;
71383;SDS011;67558;52.166;5.004;2023-07-29T10:02:39;42.53;;;41.03;;
71383;SDS011;67558;52.166;5.004;2023-07-29T10:05:07;39.65;;;38.42;;
71383;SDS011;67558;52.166;5.004;2023-07-29T10:07:37;40.83;;;39.42;;
71383;SDS011;67558;52.166;5.004;2023-07-29T10:10:04;40.25;;;38.95;;
71383;SDS011;67558;52.166;5.004;2023-07-29T10:12:31;40.45;;;39.17;;
71383;SDS011;67558;52.166;5.004;2023-07-29T10:15:06;40.95;;;39.75;;
71383;SDS011;67558;52.166;5.004;2023-07-29T10:17:33;43.67;;;42.03;;
71383;SDS011;67558;52.166;5.004;2023-07-29T10:20:03;38.72;;;37.33;;
71383;SDS011;67558;52.166;5.004;2023-07-29T10:25:03;39.53;;;38.15;;
71383;SDS011;67558;52.166;5.004;2023-07-29T10:30:44;35.45;;;34.25;;
71383;SDS011;67558;52.166;5.004;2023-07-29T10:33:10;35.90;;;34.53;;
71383;SDS011;67558;52.166;5.004;2023-07-29T10:35:36;38.75;;;37.22;;
71383;SDS011;67558;52.166;5.004;2023-07-29T10:38:03;38.05;;;36.72;;
71383;SDS011;67558;52.166;5.004;2023-07-29T10:40:50;47.10;;;45.45;;
71383;SDS011;67558;52.166;5.004;2023-07-29T10:43:32;38.03;;;36.55;;
71383;SDS011;67558;52.166;5.004;2023-07-29T10:46:14;37.90;;;36.60;;
71383;SDS011;67558;52.166;5.004;2023-07-29T10:48:54;40.83;;;39.45;;
71383;SDS011;67558;52.166;5.004;2023-07-29T10:51:22;39.00;;;37.67;;
71383;SDS011;67558;52.166;5.004;2023-07-29T10:53:48;36.83;;;35.63;;
71383;SDS011;67558;52.166;5.004;2023-07-29T10:56:33;37.72;;;36.50;;
71383;SDS011;67558;52.166;5.004;2023-07-29T11:01:38;42.22;;;40.72;;
71383;SDS011;67558;52.166;5.004;2023-07-29T11:09:59;44.97;;;43.63;;
71383;SDS011;67558;52.166;5.004;2023-07-29T11:12:43;38.33;;;37.13;;
71383;SDS011;67558;52.166;5.004;2023-07-29T11:15:16;37.03;;;35.92;;
71383;SDS011;67558;52.166;5.004;2023-07-29T11:17:53;39.75;;;38.50;;
71383;SDS011;67558;52.166;5.004;2023-07-29T11:20:24;42.72;;;41.50;;
71383;SDS011;67558;52.166;5.004;2023-07-29T11:23:14;37.88;;;36.58;;
71383;SDS011;67558;52.166;5.004;2023-07-29T11:25:40;39.42;;;38.25;;
71383;SDS011;67558;52.166;5.004;2023-07-29T11:28:06;40.53;;;39.15;;
71383;SDS011;67558;52.166;5.004;2023-07-29T11:30:32;36.15;;;35.05;;
71383;SDS011;67558;52.166;5.004;2023-07-29T11:32:58;37.95;;;36.85;;
71383;SDS011;67558;52.166;5.004;2023-07-29T11:35:24;37.67;;;36.58;;
71383;SDS011;67558;52.166;5.004;2023-07-29T11:37:52;37.33;;;36.22;;
71383;SDS011;67558;52.166;5.004;2023-07-29T11:40:20;41.60;;;40.40;;
71383;SDS011;67558;52.166;5.004;2023-07-29T11:42:47;37.78;;;36.70;;
71383;SDS011;67558;52.166;5.004;2023-07-29T11:45:17;37.35;;;36.15;;
71383;SDS011;67558;52.166;5.004;2023-07-29T11:47:44;35.70;;;34.70;;
71383;SDS011;67558;52.166;5.004;2023-07-29T11:50:11;39.42;;;38.15;;
71383;SDS011;67558;52.166;5.004;2023-07-29T11:52:41;39.45;;;38.28;;
71383;SDS011;67558;52.166;5.004;2023-07-29T11:55:09;41.95;;;40.65;;
71383;SDS011;67558;52.166;5.004;2023-07-29T11:57:36;45.63;;;43.95;;
71383;SDS011;67558;52.166;5.004;2023-07-29T12:00:03;40.55;;;39.38;;
71383;SDS011;67558;52.166;5.004;2023-07-29T12:02:32;40.38;;;39.17;;
71383;SDS011;67558;52.166;5.004;2023-07-29T12:04:59;43.45;;;41.95;;
71383;SDS011;67558;52.166;5.004;2023-07-29T12:07:25;39.45;;;38.05;;
71383;SDS011;67558;52.166;5.004;2023-07-29T12:09:51;39.08;;;37.85;;
71383;SDS011;67558;52.166;5.004;2023-07-29T12:12:17;40.75;;;39.55;;
71383;SDS011;67558;52.166;5.004;2023-07-29T12:14:44;50.00;;;48.63;;
71383;SDS011;67558;52.166;5.004;2023-07-29T12:17:13;41.38;;;40.17;;
71383;SDS011;67558;52.166;5.004;2023-07-29T12:19:39;48.03;;;46.72;;
71383;SDS011;67558;52.166;5.004;2023-07-29T12:22:06;40.20;;;39.00;;
71383;SDS011;67558;52.166;5.004;2023-07-29T12:24:35;42.45;;;41.15;;
71383;SDS011;67558;52.166;5.004;2023-07-29T12:27:01;40.80;;;39.63;;
71383;SDS011;67558;52.166;5.004;2023-07-29T12:29:28;41.20;;;39.88;;
71383;SDS011;67558;52.166;5.004;2023-07-29T12:32:00;42.70;;;41.40;;
71383;SDS011;67558;52.166;5.004;2023-07-29T12:34:28;43.40;;;42.10;;
71383;SDS011;67558;52.166;5.004;2023-07-29T12:36:55;42.80;;;41.50;;
71383;SDS011;67558;52.166;5.004;2023-07-29T12:39:23;43.00;;;41.70;;
71383;SDS011;67558;52.166;5.004;2023-07-29T12:41:52;40.33;;;39.05;;
71383;SDS011;67558;52.166;5.004;2023-07-29T12:44:19;45.28;;;43.78;;
71383;SDS011;67558;52.166;5.004;2023-07-29T12:46:45;48.03;;;46.63;;
71383;SDS011;67558;52.166;5.004;2023-07-29T12:49:11;45.70;;;44.22;;
71383;SDS011;67558;52.166;5.004;2023-07-29T12:51:37;44.50;;;43.15;;
71383;SDS011;67558;52.166;5.004;2023-07-29T12:54:04;42.40;;;41.13;;
71383;SDS011;67558;52.166;5.004;2023-07-29T12:56:30;48.47;;;47.08;;
71383;SDS011;67558;52.166;5.004;2023-07-29T12:58:59;48.78;;;47.20;;
71383;SDS011;67558;52.166;5.004;2023-07-29T13:01:25;39.75;;;38.55;;
71383;SDS011;67558;52.166;5.004;2023-07-29T13:03:53;45.05;;;43.55;;
71383;SDS011;67558;52.166;5.004;2023-07-29T13:06:20;44.83;;;43.28;;
71383;SDS011;67558;52.166;5.004;2023-07-29T13:08:47;42.80;;;41.50;;
71383;SDS011;67558;52.166;5.004;2023-07-29T13:11:14;47.60;;;46.13;;
71383;SDS011;67558;52.166;5.004;2023-07-29T13:13:40;46.42;;;44.97;;
71383;SDS011;67558;52.166;5.004;2023-07-29T13:16:06;47.30;;;45.75;;
71383;SDS011;67558;52.166;5.004;2023-07-29T13:18:32;44.72;;;43.40;;
71383;SDS011;67558;52.166;5.004;2023-07-29T13:20:58;51.25;;;49.75;;
71383;SDS011;67558;52.166;5.004;2023-07-29T13:23:25;43.95;;;42.35;;
71383;SDS011;67558;52.166;5.004;2023-07-29T13:25:52;45.25;;;43.85;;
71383;SDS011;67558;52.166;5.004;2023-07-29T13:28:18;46.35;;;45.05;;
71383;SDS011;67558;52.166;5.004;2023-07-29T13:30:45;46.22;;;44.83;;
71383;SDS011;67558;52.166;5.004;2023-07-29T13:33:10;48.80;;;47.30;;
71383;SDS011;67558;52.166;5.004;2023-07-29T13:35:36;49.75;;;48.15;;
71383;SDS011;67558;52.166;5.004;2023-07-29T13:38:02;56.97;;;55.28;;
71383;SDS011;67558;52.166;5.004;2023-07-29T13:40:28;50.58;;;48.97;;
71383;SDS011;67558;52.166;5.004;2023-07-29T13:42:55;50.53;;;49.00;;
71383;SDS011;67558;52.166;5.004;2023-07-29T13:45:21;59.67;;;57.72;;
71383;SDS011;67558;52.166;5.004;2023-07-29T13:47:48;51.08;;;49.53;;
71383;SDS011;67558;52.166;5.004;2023-07-29T13:50:14;48.25;;;46.30;;
71383;SDS011;67558;52.166;5.004;2023-07-29T13:52:40;50.60;;;49.10;;
71383;SDS011;67558;52.166;5.004;2023-07-29T13:55:07;57.03;;;55.33;;
71383;SDS011;67558;52.166;5.004;2023-07-29T13:57:32;49.83;;;48.33;;
71383;SDS011;67558;52.166;5.004;2023-07-29T13:59:58;44.70;;;43.33;;
71383;SDS011;67558;52.166;5.004;2023-07-29T14:02:24;51.20;;;49.72;;
71383;SDS011;67558;52.166;5.004;2023-07-29T14:04:52;51.53;;;50.00;;
71383;SDS011;67558;52.166;5.004;2023-07-29T14:07:18;52.60;;;51.17;;
71383;SDS011;67558;52.166;5.004;2023-07-29T14:09:44;47.05;;;45.65;;
71383;SDS011;67558;52.166;5.004;2023-07-29T14:12:10;49.90;;;48.45;;
71383;SDS011;67558;52.166;5.004;2023-07-29T14:14:39;52.75;;;51.15;;
71383;SDS011;67558;52.166;5.004;2023-07-29T14:17:05;53.03;;;51.47;;
71383;SDS011;67558;52.166;5.004;2023-07-29T14:19:34;48.40;;;47.08;;
71383;SDS011;67558;52.166;5.004;2023-07-29T14:21:59;53.85;;;52.35;;
71383;SDS011;67558;52.166;5.004;2023-07-29T14:24:25;48.42;;;46.95;;
71383;SDS011;67558;52.166;5.004;2023-07-29T14:26:51;45.42;;;44.03;;
71383;SDS011;67558;52.166;5.004;2023-07-29T14:29:16;54.95;;;53.28;;
71383;SDS011;67558;52.166;5.004;2023-07-29T14:31:42;50.42;;;48.95;;
71383;SDS011;67558;52.166;5.004;2023-07-29T14:34:09;55.75;;;54.17;;
71383;SDS011;67558;52.166;5.004;2023-07-29T14:36:34;44.80;;;43.50;;
71383;SDS011;67558;52.166;5.004;2023-07-29T14:39:00;56.15;;;54.65;;
71383;SDS011;67558;52.166;5.004;2023-07-29T14:41:26;47.67;;;46.28;;